Terminal Aerodrome Forecast
Issued by NWS North Platte, NE

Home | Current Version | Previous Version | Text Only | Print | Product List | Glossary On
Versions: 1 2 3 4 5 6 7 8 9 10 11 12 13 14 15 16 17 18
000
FTUS43 KLBF 031100
TAFVTN
TAF
KVTN 031120Z 0312/0412 34024G34KT 3SM -SN BR BKN010 OVC018
      TEMPO 0312/0315 3/4SM -SN BLSN OVC010
     FM031600 34024G34KT P6SM -SN OVC015
     FM032200 33018G30KT P6SM SCT020 BKN100
     FM040000 31010KT P6SM SCT030 BKN120=

USA.gov is the U.S. government's official web portal to all federal, state and local government web resources and services.